Fayetteville, West Virginia
Current Conditions -  °F | °C
As of 9:51 AM on Friday 28 Nov 2014 (Local Time) from KBKW Reporting Station
Light Snow Light Snow  
Wind Chill: 16°   Ceiling: 1400
Heat Index: 23°   Visibility: 1.7mi
Dew Point: 18°   Wind: 6mph
Humidity: 81%   Direction: 320°NW
Pressure: 30.29"   Gusts: NA
Location:  38.05°N, 81.1°W
Report Text: KBKW 281451Z AUTO 32005KT 1 3/4SM -SN FEW007 BKN014 OVC032 M05/M08 A3029 RMK AO2 SLP299 P0000 60000 T10501078 51011
Loading
Personal Weather Stations






























Interactive Weather Map New forecast layout! Learn more

10-Day Weather Forecast

Advertisements
Track Severe Weather on mobile